sensor_id;sensor_type;location;lat;lon;timestamp;P1;durP1;ratioP1;P2;durP2;ratioP2
49015;SDS011;34830;44.064;12.566;2022-11-03T20:57:04;32.28;;;21.30;;
49015;SDS011;34830;44.064;12.566;2022-11-03T20:59:30;30.13;;;21.00;;
49015;SDS011;34830;44.064;12.566;2022-11-03T21:01:57;37.22;;;24.30;;
49015;SDS011;34830;44.064;12.566;2022-11-03T21:04:23;35.53;;;23.35;;
49015;SDS011;34830;44.064;12.566;2022-11-03T21:06:49;34.30;;;21.23;;
49015;SDS011;34830;44.064;12.566;2022-11-03T21:09:16;28.40;;;19.92;;
49015;SDS011;34830;44.064;12.566;2022-11-03T21:11:43;30.67;;;20.55;;
49015;SDS011;34830;44.064;12.566;2022-11-03T21:14:14;30.48;;;19.90;;
49015;SDS011;34830;44.064;12.566;2022-11-03T21:16:43;28.25;;;16.70;;
49015;SDS011;34830;44.064;12.566;2022-11-03T21:19:28;24.65;;;13.88;;
49015;SDS011;34830;44.064;12.566;2022-11-03T21:22:14;19.15;;;12.63;;
49015;SDS011;34830;44.064;12.566;2022-11-03T21:24:42;19.15;;;12.63;;
49015;SDS011;34830;44.064;12.566;2022-11-03T21:27:11;22.40;;;12.73;;
49015;SDS011;34830;44.064;12.566;2022-11-03T21:29:38;16.48;;;12.68;;
49015;SDS011;34830;44.064;12.566;2022-11-03T21:32:05;23.17;;;13.60;;
49015;SDS011;34830;44.064;12.566;2022-11-03T21:34:32;20.33;;;12.48;;
49015;SDS011;34830;44.064;12.566;2022-11-03T21:36:58;18.42;;;13.25;;
49015;SDS011;34830;44.064;12.566;2022-11-03T21:39:24;19.15;;;13.30;;
49015;SDS011;34830;44.064;12.566;2022-11-03T21:41:52;17.45;;;12.57;;
49015;SDS011;34830;44.064;12.566;2022-11-03T21:44:37;24.00;;;13.15;;
49015;SDS011;34830;44.064;12.566;2022-11-03T21:47:03;17.80;;;12.25;;
49015;SDS011;34830;44.064;12.566;2022-11-03T21:49:29;17.90;;;11.57;;
49015;SDS011;34830;44.064;12.566;2022-11-03T21:52:08;19.80;;;11.80;;
49015;SDS011;34830;44.064;12.566;2022-11-03T21:54:34;13.55;;;10.35;;
49015;SDS011;34830;44.064;12.566;2022-11-03T21:57:00;14.73;;;11.07;;
49015;SDS011;34830;44.064;12.566;2022-11-03T21:59:26;17.83;;;11.02;;
49015;SDS011;34830;44.064;12.566;2022-11-03T22:01:53;17.83;;;10.30;;
49015;SDS011;34830;44.064;12.566;2022-11-03T22:04:20;14.43;;;9.60;;
49015;SDS011;34830;44.064;12.566;2022-11-03T22:06:48;14.90;;;8.50;;
49015;SDS011;34830;44.064;12.566;2022-11-03T22:09:15;13.10;;;9.48;;
49015;SDS011;34830;44.064;12.566;2022-11-03T22:11:42;13.52;;;7.75;;
49015;SDS011;34830;44.064;12.566;2022-11-03T22:14:09;11.85;;;8.18;;
49015;SDS011;34830;44.064;12.566;2022-11-03T22:16:36;10.20;;;7.13;;
49015;SDS011;34830;44.064;12.566;2022-11-03T22:21:49;11.88;;;7.00;;
49015;SDS011;34830;44.064;12.566;2022-11-03T22:24:34;10.90;;;7.97;;
49015;SDS011;34830;44.064;12.566;2022-11-03T22:27:19;12.10;;;7.28;;
49015;SDS011;34830;44.064;12.566;2022-11-03T22:29:46;12.07;;;7.18;;
49015;SDS011;34830;44.064;12.566;2022-11-03T22:32:30;10.32;;;6.20;;
49015;SDS011;34830;44.064;12.566;2022-11-03T22:34:56;10.15;;;6.50;;
49015;SDS011;34830;44.064;12.566;2022-11-03T22:37:41;12.45;;;5.53;;
49015;SDS011;34830;44.064;12.566;2022-11-03T22:40:07;8.43;;;6.03;;
49015;SDS011;34830;44.064;12.566;2022-11-03T22:42:52;9.05;;;5.18;;
49015;SDS011;34830;44.064;12.566;2022-11-03T22:45:38;8.35;;;4.80;;
49015;SDS011;34830;44.064;12.566;2022-11-03T22:48:19;11.20;;;4.93;;
49015;SDS011;34830;44.064;12.566;2022-11-03T22:50:46;6.78;;;4.53;;
49015;SDS011;34830;44.064;12.566;2022-11-03T22:53:12;12.70;;;4.22;;
49015;SDS011;34830;44.064;12.566;2022-11-03T22:55:57;8.63;;;5.05;;
49015;SDS011;34830;44.064;12.566;2022-11-03T22:58:25;10.00;;;4.45;;
49015;SDS011;34830;44.064;12.566;2022-11-03T23:00:51;8.63;;;4.05;;
49015;SDS011;34830;44.064;12.566;2022-11-03T23:03:17;8.50;;;4.45;;
49015;SDS011;34830;44.064;12.566;2022-11-03T23:05:43;9.07;;;4.35;;
49015;SDS011;34830;44.064;12.566;2022-11-03T23:08:09;8.23;;;3.92;;
49015;SDS011;34830;44.064;12.566;2022-11-03T23:10:35;8.80;;;3.92;;
49015;SDS011;34830;44.064;12.566;2022-11-03T23:13:01;8.00;;;4.13;;
49015;SDS011;34830;44.064;12.566;2022-11-03T23:15:28;10.50;;;4.75;;
49015;SDS011;34830;44.064;12.566;2022-11-03T23:23:29;7.73;;;4.37;;
49015;SDS011;34830;44.064;12.566;2022-11-03T23:26:14;8.70;;;3.88;;
49015;SDS011;34830;44.064;12.566;2022-11-03T23:28:41;9.07;;;4.18;;
49015;SDS011;34830;44.064;12.566;2022-11-03T23:31:07;10.13;;;4.13;;
49015;SDS011;34830;44.064;12.566;2022-11-03T23:33:34;8.10;;;3.80;;
49015;SDS011;34830;44.064;12.566;2022-11-03T23:36:04;8.40;;;3.80;;
49015;SDS011;34830;44.064;12.566;2022-11-03T23:38:31;9.03;;;4.80;;
49015;SDS011;34830;44.064;12.566;2022-11-03T23:43:53;7.70;;;4.43;;
49015;SDS011;34830;44.064;12.566;2022-11-03T23:46:21;8.35;;;4.30;;
49015;SDS011;34830;44.064;12.566;2022-11-03T23:49:07;9.15;;;3.95;;
49015;SDS011;34830;44.064;12.566;2022-11-03T23:51:34;6.88;;;4.15;;
49015;SDS011;34830;44.064;12.566;2022-11-03T23:54:01;4.88;;;3.50;;
49015;SDS011;34830;44.064;12.566;2022-11-03T23:56:29;7.45;;;4.38;;
49015;SDS011;34830;44.064;12.566;2022-11-03T23:59:17;8.38;;;3.83;;
